createdAt,value
2019-01-21T00:02:08.694Z,26.13
2019-01-21T00:04:37.570Z,24.03
2019-01-21T00:07:06.386Z,25.00
2019-01-21T00:09:35.194Z,25.00
2019-01-21T00:12:03.955Z,25.50
2019-01-21T00:14:32.702Z,26.43
2019-01-21T00:17:01.499Z,24.23
2019-01-21T00:19:30.249Z,24.80
2019-01-21T00:21:59.087Z,23.77
2019-01-21T00:24:27.823Z,27.70
2019-01-21T00:26:56.594Z,27.10
2019-01-21T00:29:26.220Z,26.90
2019-01-21T00:31:55.003Z,24.73
2019-01-21T00:34:23.777Z,26.37
2019-01-21T00:36:52.533Z,23.43
2019-01-21T00:39:21.227Z,24.80
2019-01-21T00:41:49.960Z,26.47
2019-01-21T00:44:18.723Z,24.43
2019-01-21T00:46:47.409Z,26.13
2019-01-21T00:49:16.130Z,26.33
2019-01-21T00:51:44.885Z,23.80
2019-01-21T00:54:13.630Z,22.97
2019-01-21T00:56:42.367Z,22.27
2019-01-21T00:59:11.152Z,22.23
2019-01-21T01:01:39.874Z,22.60
2019-01-21T01:04:08.598Z,24.63
2019-01-21T01:06:37.400Z,21.40
2019-01-21T01:09:07.121Z,23.27
2019-01-21T01:11:35.851Z,24.13
2019-01-21T01:14:04.626Z,24.27
2019-01-21T01:16:33.342Z,22.50
2019-01-21T01:19:02.294Z,21.87
2019-01-21T01:21:31.005Z,23.17
2019-01-21T01:23:59.823Z,24.83
2019-01-21T01:26:28.649Z,22.30
2019-01-21T01:28:57.383Z,24.43
2019-01-21T01:31:26.162Z,24.27
2019-01-21T01:33:54.912Z,26.57
2019-01-21T01:36:23.735Z,25.80
2019-01-21T01:38:52.446Z,26.00
2019-01-21T01:41:21.202Z,24.77
2019-01-21T01:43:52.342Z,26.87
2019-01-21T01:46:21.106Z,25.73
2019-01-21T01:48:49.935Z,23.10
2019-01-21T01:51:18.766Z,23.60
2019-01-21T01:53:47.503Z,23.90
2019-01-21T01:56:16.273Z,25.87
2019-01-21T01:58:44.979Z,26.30
2019-01-21T02:01:13.688Z,23.33
2019-01-21T02:03:42.800Z,23.27
2019-01-21T02:06:11.569Z,23.27
2019-01-21T02:08:40.338Z,24.60
2019-01-21T02:11:09.159Z,24.57
2019-01-21T02:13:37.891Z,25.20
2019-01-21T02:16:06.629Z,24.83
2019-01-21T02:18:35.382Z,27.57
2019-01-21T02:21:05.070Z,23.63
2019-01-21T02:23:37.406Z,23.00
2019-01-21T02:26:09.602Z,24.37
2019-01-21T02:28:50.352Z,22.27
2019-01-21T02:31:44.311Z,24.47
2019-01-21T02:34:28.464Z,22.53
2019-01-21T02:37:15.365Z,21.93
2019-01-21T02:39:47.847Z,23.20
2019-01-21T02:42:25.431Z,24.57
2019-01-21T02:45:19.078Z,27.30
2019-01-21T02:47:59.978Z,21.83
2019-01-21T02:50:39.765Z,23.47
2019-01-21T02:53:30.349Z,25.47
2019-01-21T02:56:21.294Z,23.47
2019-01-21T02:59:12.238Z,28.10
2019-01-21T03:01:59.188Z,22.17
2019-01-21T03:04:38.361Z,23.57
2019-01-21T03:07:17.543Z,25.10
2019-01-21T03:10:11.158Z,23.70
2019-01-21T03:12:53.410Z,24.23
2019-01-21T03:15:38.450Z,25.87
2019-01-21T03:18:24.956Z,24.23
2019-01-21T03:21:31.293Z,26.03
2019-01-21T03:24:17.722Z,25.15
2019-01-21T03:27:01.517Z,24.17
2019-01-21T03:29:55.638Z,27.50
2019-01-21T03:32:40.221Z,25.33
2019-01-21T03:35:25.485Z,24.33
2019-01-21T03:38:09.119Z,25.77
2019-01-21T03:40:44.727Z,28.37
2019-01-21T03:43:31.485Z,24.57
2019-01-21T03:46:06.571Z,24.17
2019-01-21T03:49:06.594Z,28.10
2019-01-21T03:51:54.519Z,23.80
2019-01-21T03:54:25.749Z,23.40
2019-01-21T03:57:12.509Z,21.30
2019-01-21T03:59:58.962Z,25.63
2019-01-21T04:02:49.945Z,23.40
2019-01-21T04:05:21.610Z,20.33
2019-01-21T04:07:57.741Z,23.00
2019-01-21T04:10:57.595Z,24.03
2019-01-21T04:13:57.775Z,21.63
2019-01-21T04:16:42.951Z,24.43
2019-01-21T04:19:23.100Z,23.50
2019-01-21T04:22:10.968Z,21.97
2019-01-21T04:25:05.048Z,22.07
2019-01-21T04:27:59.587Z,24.07
2019-01-21T04:30:43.243Z,21.37
2019-01-21T04:33:43.492Z,25.37
2019-01-21T04:36:31.362Z,24.67
2019-01-21T04:39:07.623Z,23.70
2019-01-21T04:41:54.306Z,21.53
2019-01-21T04:44:29.456Z,21.07
2019-01-21T04:47:13.189Z,22.47
2019-01-21T04:50:07.162Z,20.90
2019-01-21T04:52:59.374Z,25.63
2019-01-21T04:55:46.082Z,20.67
2019-01-21T04:58:24.319Z,21.23
2019-01-21T05:01:10.981Z,22.93
2019-01-21T07:26:22.530Z,22.17
2019-01-21T07:29:09.376Z,24.10
2019-01-21T07:31:57.243Z,23.80
2019-01-21T07:35:00.103Z,24.03
2019-01-21T07:37:54.180Z,25.33
2019-01-21T07:40:36.983Z,28.77
2019-01-21T07:43:23.659Z,24.93
2019-01-21T07:46:11.476Z,26.87
2019-01-21T07:48:55.250Z,27.93
2019-01-21T07:51:43.074Z,29.50
2019-01-21T07:54:26.922Z,22.83
2019-01-21T07:57:13.741Z,29.13
2019-01-21T08:00:07.662Z,25.60
2019-01-21T08:03:04.711Z,28.30
2019-01-21T08:05:39.774Z,29.43
2019-01-21T08:08:21.215Z,27.53
2019-01-21T08:11:15.003Z,28.77
2019-01-21T08:13:50.647Z,24.37
2019-01-21T08:16:38.700Z,23.57
2019-01-21T08:19:11.914Z,26.23
2019-01-21T08:22:18.372Z,22.07
2019-01-21T08:25:05.249Z,30.57
2019-01-21T08:28:08.163Z,27.77
2019-01-21T08:30:40.570Z,23.17
2019-01-21T08:33:37.851Z,24.73
2019-01-21T08:36:24.365Z,27.67
2019-01-21T08:39:12.469Z,23.87
2019-01-21T08:41:51.444Z,23.77
2019-01-21T08:44:25.831Z,26.43
2019-01-21T08:47:32.192Z,28.37
2019-01-21T08:50:05.635Z,23.20
2019-01-21T08:52:52.333Z,26.20
2019-01-21T08:55:40.169Z,25.53
2019-01-21T08:58:26.742Z,27.07
2019-01-21T09:01:17.584Z,28.97
2019-01-21T09:04:14.502Z,25.33
2019-01-21T09:07:00.664Z,27.10
2019-01-21T09:09:47.902Z,23.87
2019-01-21T09:12:41.561Z,29.60
2019-01-21T09:15:22.738Z,29.33
2019-01-21T09:18:19.586Z,30.08
2019-01-21T09:21:06.358Z,29.00
2019-01-21T09:23:48.697Z,26.87
2019-01-21T09:26:42.496Z,26.93
2019-01-21T09:29:31.998Z,28.23
2019-01-21T09:32:29.201Z,27.63
2019-01-21T09:35:09.990Z,26.53
2019-01-21T09:37:47.445Z,28.17
2019-01-21T09:40:41.488Z,25.40
2019-01-21T09:43:16.734Z,27.03
2019-01-21T09:46:16.980Z,27.17
2019-01-21T09:48:44.878Z,28.10
2019-01-21T09:51:14.620Z,24.00
2019-01-21T09:53:43.924Z,28.30
2019-01-21T09:56:12.637Z,30.10
2019-01-21T09:58:41.910Z,30.87
2019-01-21T10:01:10.695Z,25.43
2019-01-21T10:03:39.739Z,29.20
2019-01-21T10:06:09.086Z,27.40
2019-01-21T10:08:51.188Z,28.97
2019-01-21T10:11:39.078Z,28.93
2019-01-21T10:14:15.151Z,28.20
2019-01-21T10:17:09.018Z,31.50
2019-01-21T10:19:55.577Z,27.40
2019-01-21T10:22:43.404Z,32.53
2019-01-21T10:25:24.101Z,30.80
2019-01-21T10:28:20.917Z,31.40
2019-01-21T10:31:23.889Z,29.60
2019-01-21T10:34:02.130Z,32.03
2019-01-21T10:36:40.343Z,26.77
2019-01-21T10:39:31.032Z,29.57
2019-01-21T10:42:17.678Z,29.20
2019-01-21T10:44:57.795Z,30.03
2019-01-21T10:47:35.359Z,29.43
2019-01-21T10:50:16.090Z,31.17
2019-01-21T10:53:16.133Z,26.63
2019-01-21T10:56:22.420Z,28.90
2019-01-21T10:59:08.778Z,30.30
2019-01-21T11:01:57.151Z,27.37
2019-01-21T11:04:54.114Z,27.23
2019-01-21T11:07:34.123Z,26.77
2019-01-21T11:10:24.718Z,29.20
2019-01-21T11:13:09.259Z,28.07
2019-01-21T11:15:47.571Z,27.27
2019-01-21T11:18:44.302Z,33.23
2019-01-21T11:21:19.432Z,28.60
2019-01-21T11:24:13.578Z,32.00
2019-01-21T11:27:04.227Z,26.90
2019-01-21T11:29:45.396Z,27.27
2019-01-21T11:32:42.295Z,28.83
2019-01-21T11:35:33.374Z,27.17
2019-01-21T11:38:11.254Z,27.83
2019-01-21T11:40:43.901Z,26.00
2019-01-21T11:43:30.728Z,26.73
2019-01-21T11:46:13.069Z,25.57
2019-01-21T11:48:52.045Z,27.40
2019-01-21T11:51:29.297Z,24.77
2019-01-21T11:54:12.004Z,23.87
2019-01-21T11:56:49.057Z,25.33
2019-01-21T11:59:52.282Z,29.83
2019-01-21T12:02:29.886Z,25.10
2019-01-21T12:05:20.522Z,27.23
2019-01-21T12:08:01.963Z,27.87
2019-01-21T12:10:41.999Z,29.70
2019-01-21T12:13:25.647Z,24.37
2019-01-21T12:16:13.459Z,24.60
2019-01-21T12:18:47.605Z,29.97
2019-01-21T12:21:44.775Z,31.60
2019-01-21T12:24:25.544Z,29.10
2019-01-21T12:26:58.046Z,25.93
2019-01-21T12:29:44.638Z,26.30
2019-01-21T12:32:35.618Z,30.73
2019-01-21T12:35:23.777Z,27.03
2019-01-21T12:38:10.366Z,28.07
2019-01-21T12:40:48.811Z,26.30
2019-01-21T12:43:39.621Z,26.77
2019-01-21T12:46:26.188Z,26.10
2019-01-21T12:49:12.967Z,27.80
2019-01-21T12:51:50.679Z,27.73
2019-01-21T12:54:50.838Z,25.57
2019-01-21T12:57:47.983Z,24.97
2019-01-21T13:00:41.913Z,25.50
2019-01-21T13:03:29.817Z,27.45
2019-01-21T13:06:04.247Z,24.20
2019-01-21T13:08:40.065Z,25.20
2019-01-21T13:11:24.577Z,22.17
2019-01-21T13:14:11.387Z,26.47
2019-01-21T13:17:17.671Z,26.67
2019-01-21T13:20:09.391Z,23.70
2019-01-21T13:23:00.140Z,23.80
2019-01-21T13:25:51.111Z,24.43
2019-01-21T13:28:39.457Z,23.07
2019-01-21T13:31:42.342Z,24.00
2019-01-21T13:34:36.494Z,24.77
2019-01-21T13:37:24.316Z,24.43
2019-01-21T13:40:04.143Z,23.97
2019-01-21T13:42:37.487Z,24.17
2019-01-21T13:45:25.772Z,23.10
2019-01-21T13:48:03.829Z,21.43
2019-01-21T13:50:53.331Z,21.50
2019-01-21T13:53:40.118Z,22.03
2019-01-21T13:56:27.972Z,21.30
2019-01-21T13:59:05.072Z,21.47
2019-01-21T14:01:39.662Z,20.90
2019-01-21T14:04:26.532Z,20.90
2019-01-21T14:07:20.347Z,19.87
2019-01-21T14:10:08.181Z,19.43
2019-01-21T14:12:54.949Z,18.33
2019-01-21T14:15:41.706Z,19.67
2019-01-21T14:18:24.346Z,21.90
2019-01-21T14:20:59.458Z,23.90
2019-01-21T14:23:33.138Z,22.53
2019-01-21T14:26:19.874Z,30.53
2019-01-21T14:29:22.824Z,24.77
2019-01-21T14:31:58.842Z,24.87
2019-01-21T14:34:38.313Z,22.43
2019-01-21T14:37:12.977Z,25.80
2019-01-21T14:39:50.209Z,25.50
2019-01-21T14:42:40.876Z,25.17
2019-01-21T14:45:27.628Z,26.13
2019-01-21T14:48:18.541Z,30.13
2019-01-21T14:51:09.407Z,22.67
2019-01-21T14:53:49.257Z,23.53
2019-01-21T14:56:39.366Z,25.17
2019-01-21T14:59:15.687Z,22.83
2019-01-21T15:02:03.640Z,25.47
2019-01-21T15:04:51.512Z,22.37
2019-01-21T15:07:38.470Z,26.23
2019-01-21T15:10:29.384Z,25.33
2019-01-21T15:13:20.169Z,22.77
2019-01-21T15:16:11.059Z,24.70
2019-01-21T15:18:49.279Z,27.27
2019-01-21T15:21:40.188Z,27.47
2019-01-21T15:24:18.945Z,24.37
2019-01-21T15:27:06.964Z,25.90
2019-01-21T15:29:56.433Z,26.77
2019-01-21T15:32:42.805Z,29.40
2019-01-21T15:35:25.944Z,27.40
2019-01-21T15:38:15.842Z,26.43
2019-01-21T15:41:02.614Z,26.40
2019-01-21T15:43:56.679Z,27.30
2019-01-21T15:46:36.474Z,28.33
2019-01-21T15:49:27.247Z,28.87
2019-01-21T15:52:24.388Z,25.53
2019-01-21T15:54:56.898Z,27.73
2019-01-21T15:57:44.739Z,27.63
2019-01-21T16:00:47.943Z,27.03
2019-01-21T16:03:38.824Z,27.87
2019-01-21T16:06:25.585Z,27.67
2019-01-21T16:09:02.064Z,28.77
2019-01-21T16:11:48.057Z,25.43
2019-01-21T16:14:24.206Z,28.03
2019-01-21T16:17:05.812Z,27.70
2019-01-21T16:19:42.278Z,28.60
2019-01-21T16:22:29.025Z,26.27
2019-01-21T16:25:30.475Z,28.03
2019-01-21T16:28:21.134Z,28.73
2019-01-21T16:31:14.879Z,27.50
2019-01-21T16:34:01.396Z,32.23
2019-01-21T16:36:43.706Z,25.27
2019-01-21T16:39:19.914Z,29.33
2019-01-21T16:42:06.059Z,30.53
2019-01-21T16:44:34.802Z,39.37
2019-01-21T16:47:03.561Z,39.73
2019-01-21T16:49:32.336Z,37.13
2019-01-21T16:52:01.069Z,38.50
2019-01-21T16:54:29.782Z,38.30
2019-01-21T16:56:58.541Z,35.70
2019-01-21T16:59:27.277Z,36.47
2019-01-21T17:01:56.183Z,31.17
2019-01-21T17:04:25.058Z,34.70
2019-01-21T17:06:53.815Z,30.67
2019-01-21T17:09:22.646Z,30.90
2019-01-21T17:11:51.493Z,30.43
2019-01-21T17:14:20.250Z,26.20
2019-01-21T17:16:49.018Z,26.80
2019-01-21T17:19:17.835Z,29.07
2019-01-21T17:21:46.628Z,28.80
2019-01-21T17:24:15.390Z,32.07
2019-01-21T17:26:44.207Z,29.43
2019-01-21T17:29:13.232Z,28.43
2019-01-21T17:31:42.022Z,29.67
2019-01-21T17:34:10.818Z,27.57
2019-01-21T17:36:39.651Z,27.13
2019-01-21T17:39:08.800Z,27.47
2019-01-21T17:41:37.617Z,28.20
2019-01-21T17:44:06.440Z,28.53
2019-01-21T17:46:35.163Z,25.30
2019-01-21T17:49:04.326Z,25.57
2019-01-21T17:51:34.445Z,25.93
2019-01-21T17:54:03.717Z,27.50
2019-01-21T17:56:32.490Z,27.97
2019-01-21T17:59:01.250Z,26.90
2019-01-21T18:01:29.946Z,27.27
2019-01-21T18:03:58.713Z,27.13
2019-01-21T18:06:27.569Z,28.53
2019-01-21T18:08:56.351Z,27.80
2019-01-21T18:11:26.886Z,31.20
2019-01-21T18:13:55.676Z,32.67
2019-01-21T18:16:24.464Z,43.77
2019-01-21T18:18:53.229Z,43.37
2019-01-21T18:21:22.702Z,35.13
2019-01-21T18:23:51.641Z,33.63
2019-01-21T18:26:20.612Z,30.03
2019-01-21T18:28:49.366Z,28.13
2019-01-21T18:31:18.151Z,31.03
2019-01-21T18:33:46.902Z,32.13
2019-01-21T18:36:15.675Z,31.10
2019-01-21T18:38:44.463Z,31.93
2019-01-21T18:41:13.377Z,30.07
2019-01-21T18:43:42.145Z,30.00
2019-01-21T18:46:11.162Z,29.50
2019-01-21T18:48:40.022Z,27.83
2019-01-21T18:51:08.862Z,30.10
2019-01-21T18:53:37.835Z,32.20
2019-01-21T18:56:06.649Z,30.53
2019-01-21T18:58:35.633Z,30.93
2019-01-21T19:01:04.515Z,29.60
2019-01-21T19:03:33.435Z,34.37
2019-01-21T19:06:02.233Z,31.63
2019-01-21T19:08:31.178Z,28.93
2019-01-21T19:11:00.009Z,30.33
2019-01-21T19:13:28.827Z,33.05
2019-01-21T19:15:57.609Z,31.17
2019-01-21T19:18:26.390Z,33.50
2019-01-21T19:20:55.124Z,36.27
2019-01-21T19:23:23.855Z,39.97
2019-01-21T19:25:52.619Z,40.07
2019-01-21T19:28:21.360Z,41.30
2019-01-21T19:30:50.115Z,41.03
2019-01-21T19:33:18.851Z,34.77
2019-01-21T19:35:47.669Z,35.53
2019-01-21T19:38:16.427Z,37.10
2019-01-21T19:40:45.353Z,40.17
2019-01-21T19:43:14.096Z,35.97
2019-01-21T19:45:43.330Z,36.57
2019-01-21T19:48:12.235Z,33.37
2019-01-21T19:50:41.094Z,30.60
2019-01-21T19:53:10.023Z,35.17
2019-01-21T19:55:39.955Z,29.00
2019-01-21T19:58:09.377Z,31.90
2019-01-21T20:00:38.344Z,29.17
2019-01-21T20:03:07.210Z,32.20
2019-01-21T20:05:36.056Z,30.10
2019-01-21T20:08:05.232Z,31.53
2019-01-21T20:10:34.043Z,29.93
2019-01-21T20:13:02.955Z,29.70
2019-01-21T20:15:31.959Z,30.20
2019-01-21T20:18:03.565Z,31.93
2019-01-21T20:20:33.802Z,33.60
2019-01-21T20:23:02.650Z,31.20
2019-01-21T20:25:31.450Z,34.00
2019-01-21T20:28:00.278Z,30.80
2019-01-21T20:30:29.013Z,32.67
2019-01-21T20:32:57.930Z,30.23
2019-01-21T20:35:26.798Z,31.47
2019-01-21T20:37:55.678Z,31.87
2019-01-21T20:40:26.286Z,28.27
2019-01-21T20:42:56.507Z,35.10
2019-01-21T20:45:25.275Z,32.27
2019-01-21T20:47:54.181Z,33.33
2019-01-21T20:50:24.328Z,30.77
2019-01-21T20:52:53.135Z,30.33
2019-01-21T20:55:21.876Z,33.63
2019-01-21T20:57:50.735Z,32.23
2019-01-21T21:00:20.825Z,31.83
2019-01-21T21:02:51.542Z,32.33
2019-01-21T21:05:20.335Z,33.90
2019-01-21T21:07:49.093Z,32.63
2019-01-21T21:10:17.940Z,33.83
2019-01-21T21:12:46.705Z,31.87
2019-01-21T21:15:16.805Z,32.93
2019-01-21T21:17:45.520Z,30.83
2019-01-21T21:20:14.471Z,31.53
2019-01-21T21:22:43.306Z,35.33
2019-01-21T21:25:12.655Z,32.63
2019-01-21T21:27:41.482Z,33.20
2019-01-21T21:32:47.075Z,34.07
2019-01-21T21:35:15.905Z,31.23
2019-01-21T21:37:44.689Z,34.47
2019-01-21T21:40:14.355Z,39.53
2019-01-21T21:42:43.224Z,38.00
2019-01-21T21:47:47.425Z,37.63
2019-01-21T21:50:17.668Z,33.40
2019-01-21T21:52:46.528Z,29.03
2019-01-21T21:55:15.369Z,33.00
2019-01-21T21:57:44.096Z,30.07
2019-01-21T22:00:17.198Z,34.93
2019-01-21T22:02:45.903Z,29.50
2019-01-21T22:05:14.646Z,31.87
2019-01-21T22:07:43.358Z,31.60
2019-01-21T22:10:12.930Z,32.40
2019-01-21T22:12:41.599Z,31.77
2019-01-21T22:15:12.046Z,32.63
2019-01-21T22:17:40.703Z,33.67
2019-01-21T22:20:10.640Z,32.60
2019-01-21T22:22:39.555Z,32.30
2019-01-21T22:25:08.403Z,30.57
2019-01-21T22:27:37.559Z,36.77
2019-01-21T22:30:11.850Z,31.27
2019-01-21T22:32:40.620Z,34.13
2019-01-21T22:35:14.557Z,32.63
2019-01-21T22:37:43.557Z,34.47
2019-01-21T22:40:13.374Z,32.83
2019-01-21T22:42:42.108Z,35.47
2019-01-21T22:45:11.322Z,33.77
2019-01-21T22:47:40.099Z,40.43
2019-01-21T22:50:09.459Z,36.03
2019-01-21T22:52:41.850Z,34.70
2019-01-21T22:55:09.405Z,34.53
2019-01-21T22:57:38.153Z,32.73
2019-01-21T23:00:18.699Z,35.50
2019-01-21T23:02:47.407Z,33.20
2019-01-21T23:05:16.324Z,34.63
2019-01-21T23:07:45.125Z,34.40
2019-01-21T23:10:13.863Z,36.17
2019-01-21T23:12:48.491Z,36.27
2019-01-21T23:15:20.188Z,33.97
2019-01-21T23:17:48.944Z,36.73
2019-01-21T23:20:17.678Z,33.60
2019-01-21T23:22:49.314Z,41.10
2019-01-21T23:25:16.859Z,39.20
2019-01-21T23:27:45.576Z,39.47
2019-01-21T23:32:48.697Z,41.80
2019-01-21T23:35:18.226Z,37.83
2019-01-21T23:37:47.157Z,36.10
2019-01-21T23:40:16.030Z,44.27
2019-01-21T23:42:44.732Z,40.07
2019-01-21T23:45:13.542Z,39.30
2019-01-21T23:47:42.259Z,40.47
2019-01-21T23:50:11.380Z,36.47
2019-01-21T23:52:40.481Z,38.43
2019-01-21T23:55:09.269Z,42.00
2019-01-21T23:57:38.067Z,37.73
